Provincetown III — WDB8185 — position and weather

sailwx.info

Track history (hours):
 
Tides and Currents Weather Stations Pressure Air Temp Water Temp Dewpoint Dewpoint Depression Visibility Wind Speed Wind Dir Waves Ship Positions

Provincetown III

Owner: MYSTIC FERRY LEASING LLC, BOSTON, MA. More information available from US FCC via Universal Licensing System and Coast Guard Vessel Documentation Center.

Last reported at 2017-May-30 00:09 UTC. Time now 2017-May-30 07:28 UTC.
Position N 40°43' W 074°03'.

Length 30 m; draft 2 m.

Type: Passenger vessel. MMSI: 366954420.

Date/timePositionNaut miles runAvg speedWind from/ knotsBaromVisibWave heightAir tempDewpointWater temp
2017-May-30 00:09N 40°43' W 074°03'0 0.5
2017-May-30 00:00N 40°43' W 074°02'1 2.3
2017-May-29 23:31N 40°42' W 074°01'3 6.3
2017-May-29 23:01N 40°39' W 074°02'918.2
2017-May-29 22:30N 40°35' W 073°51'713.9
2017-May-29 22:00N 40°34' W 074°00'816.4
2017-May-29 21:31N 40°42' W 074°00'5 9.9
2017-May-29 21:01N 40°38' W 074°03'1019.0
2017-May-29 20:29N 40°35' W 073°50'817.4
2017-May-29 20:00N 40°34' W 074°01'815.9
2017-May-29 19:30N 40°42' W 074°00'4 8.7
2017-May-29 19:01N 40°38' W 074°02'1019.8
2017-May-29 18:30N 40°35' W 073°50'917.1
2017-May-29 18:00N 40°35' W 074°01'715.2
2017-May-29 17:31N 40°42' W 074°00'510.0
2017-May-29 17:01N 40°37' W 074°03'1019.6
2017-May-29 16:30N 40°35' W 073°50'917.9
2017-May-29 16:00N 40°35' W 074°02'714.1
2017-May-29 15:30N 40°42' W 074°00'611.3
2017-May-29 15:00N 40°37' W 074°03'1019.4
2017-May-29 14:30N 40°35' W 073°50'1110.7
2017-May-29 13:30N 40°42' W 074°00'510.7
2017-May-29 13:00N 40°37' W 074°03'1019.6
2017-May-29 12:31N 40°35' W 073°50'816.0
2017-May-29 12:00N 40°34' W 074°01'816.2
2017-May-29 11:31N 40°42' W 074°00'611.6
2017-May-29 11:00N 40°37' W 074°03'1019.0
2017-May-29 10:29N 40°35' W 073°50'612.6
2017-May-29 10:00N 40°34' W 073°58'918.9
2017-May-29 09:30N 40°43' W 074°02'0 0.7
2017-May-29 09:00N 40°43' W 074°03'0 0.0
2017-May-29 01:05N 40°43' W 074°03'0 0.1
2017-May-29 01:00N 40°43' W 074°03'0 0.7
2017-May-29 00:31N 40°43' W 074°02'2 3.3
2017-May-29 00:00N 40°42' W 074°00'714.5
2017-May-28 23:30N 40°35' W 074°01'917.3
2017-May-28 23:00N 40°35' W 073°50'714.9
2017-May-28 22:30N 40°34' W 073°60'816.6
2017-May-28 22:01N 40°42' W 074°00'611.2
2017-May-28 21:31N 40°37' W 074°03'1019.1
2017-May-28 21:00N 40°35' W 073°50'714.0
2017-May-28 20:29N 40°34' W 073°59'816.5
2017-May-28 20:01N 40°42' W 074°01'3 6.2
2017-May-28 19:30N 40°39' W 074°02'714.7
2017-May-28 19:00N 40°34' W 073°54'2 3.8
2017-May-28 18:30N 40°35' W 073°52'917.8
2017-May-28 18:01N 40°39' W 074°02'4 7.1
2017-May-28 17:30N 40°42' W 074°00'816.2
2017-May-28 17:01N 40°34' W 074°00'815.6
2017-May-28 16:30N 40°35' W 073°50'1019.1
2017-May-28 16:00N 40°36' W 074°02'612.2
2017-May-28 15:31N 40°42' W 074°00'611.9
2017-May-28 15:00N 40°36' W 074°02'2 1.5
2017-May-28 13:59N 40°35' W 074°01'715.0
2017-May-28 13:31N 40°42' W 074°00'611.6
2017-May-28 13:00N 40°37' W 074°02'1017.8
2017-May-28 12:28N 40°35' W 073°50'817.9
2017-May-28 12:00N 40°34' W 074°01'816.0
2017-May-28 11:30N 40°42' W 074°00'611.4
2017-May-28 11:00N 40°37' W 074°02'1017.5
2017-May-28 10:27N 40°35' W 073°50'716.1
2017-May-28 10:00N 40°34' W 073°59'918.6
2017-May-28 09:30N 40°43' W 074°03'0 0.2
2017-May-28 09:00N 40°43' W 074°03'0 0.0
2017-May-28 01:00N 40°43' W 074°03'0 0.7
2017-May-28 00:30N 40°43' W 074°03'2 3.3
2017-May-28 00:00N 40°42' W 074°00'612.4
2017-May-27 23:30N 40°36' W 074°02'918.0
2017-May-27 22:59N 40°35' W 073°50'917.6
2017-May-27 22:30N 40°35' W 074°01'815.4
2017-May-27 22:00N 40°42' W 074°00'714.7
2017-May-27 21:31N 40°35' W 074°01'917.6
2017-May-27 21:01N 40°35' W 073°50'917.4
2017-May-27 20:30N 40°35' W 074°02'714.5
2017-May-27 20:00N 40°42' W 074°00'4 8.3
2017-May-27 19:31N 40°38' W 074°02'1019.6
2017-May-27 19:00N 40°35' W 073°50'510.0
2017-May-27 18:30N 40°34' W 073°57'816.5
2017-May-27 18:01N 40°41' W 074°02'2 3.6
2017-May-27 17:31N 40°39' W 074°02'714.1
2017-May-27 17:00N 40°34' W 073°56'3 5.3
2017-May-27 16:26N 40°35' W 073°52'920.1
2017-May-27 16:00N 40°37' W 074°03'510.6
2017-May-27 15:31N 40°42' W 074°00'714.2
2017-May-27 15:01N 40°35' W 074°02'917.7
2017-May-27 14:30N 40°35' W 073°50'1110.7
2017-May-27 13:30N 40°42' W 074°00'510.9
2017-May-27 13:00N 40°37' W 074°03'1019.4
2017-May-27 12:30N 40°35' W 073°50'815.8
2017-May-27 12:00N 40°34' W 073°60'816.3
2017-May-27 11:30N 40°42' W 074°00'510.9
2017-May-27 11:00N 40°37' W 074°03'1019.8
2017-May-27 10:30N 40°35' W 073°50'611.2
2017-May-27 09:58N 40°34' W 073°58'10 1.1
2017-May-27 00:49N 40°43' W 074°03'0 1.1
2017-May-27 00:31N 40°43' W 074°03'0 0.2
2017-May-27 00:00N 40°43' W 074°03'2 4.7
2017-May-26 23:31N 40°40' W 074°01'713.5
2017-May-26 23:00N 40°34' W 073°59'4 6.6
2017-May-26 22:24N 40°34' W 073°54'820.3
2017-May-26 22:01N 40°38' W 074°03'4 8.5
2017-May-26 21:31N 40°42' W 074°00'816.0
2017-May-26 21:00N 40°34' W 074°01'815.7
2017-May-26 20:29N 40°35' W 073°50'1020.6
2017-May-26 20:01N 40°37' W 074°03'611.1
2017-May-26 19:30N 40°42' W 074°00'510.4
2017-May-26 19:01N 40°37' W 074°03'1019.8
2017-May-26 18:30N 40°35' W 073°50'917.2
2017-May-26 18:00N 40°35' W 074°01'714.8
2017-May-26 17:30N 40°42' W 074°00'611.1
2017-May-26 17:01N 40°37' W 074°03'1018.5
2017-May-26 16:29N 40°35' W 073°50'816.5
2017-May-26 16:01N 40°34' W 074°00'816.2
2017-May-26 15:30N 40°42' W 074°00'611.2
2017-May-26 15:00N 40°37' W 074°02'1018.9
2017-May-26 14:30N 40°35' W 073°50'1110.9
2017-May-26 13:30N 40°42' W 074°00'612.1
2017-May-26 13:01N 40°36' W 074°02'916.4
2017-May-26 12:26N 40°35' W 073°50'819.5
2017-May-26 12:00N 40°34' W 074°01'816.0
2017-May-26 11:30N 40°42' W 074°00'612.1
2017-May-26 11:01N 40°36' W 074°02'1018.5
2017-May-26 10:30N 40°35' W 073°50'714.8
2017-May-26 10:00N 40°34' W 073°60'918.5
2017-May-26 09:30N 40°43' W 074°03'0 0.2
2017-May-26 09:00N 40°43' W 074°03'0 0.0
2017-May-26 00:34N 40°43' W 074°03'0 0.0
2017-May-26 00:30N 40°43' W 074°03'0 0.7
2017-May-26 00:00N 40°43' W 074°02'2 3.3
2017-May-25 23:30N 40°42' W 074°00'714.0
2017-May-25 23:00N 40°35' W 074°02'917.6
2017-May-25 22:30N 40°35' W 073°50'1019.9
2017-May-25 22:00N 40°37' W 074°03'611.6
2017-May-25 21:30N 40°42' W 074°00'510.8
2017-May-25 21:01N 40°37' W 074°03'1019.2
2017-May-25 20:29N 40°35' W 073°50'918.1
2017-May-25 20:00N 40°35' W 074°02'714.5
2017-May-25 19:30N 40°42' W 074°00'612.5
2017-May-25 19:00N 40°36' W 074°02'918.7
2017-May-25 18:30N 40°35' W 073°50'917.2
2017-May-25 18:00N 40°34' W 074°01'815.7
2017-May-25 17:30N 40°42' W 074°00'510.7
2017-May-25 17:00N 40°37' W 074°03'1018.2
2017-May-25 16:28N 40°35' W 073°50'818.2
2017-May-25 16:00N 40°34' W 074°01'816.1
2017-May-25 15:31N 40°42' W 074°00'510.6
2017-May-25 15:00N 40°37' W 074°03'1019.1
2017-May-25 14:29N 40°35' W 073°50'1110.8
2017-May-25 13:31N 40°42' W 074°00'510.1
2017-May-25 13:00N 40°37' W 074°03'1018.9
2017-May-25 12:29N 40°35' W 073°50'817.7
2017-May-25 12:00N 40°34' W 074°01'815.9
2017-May-25 11:30N 40°42' W 074°00'611.2
2017-May-25 11:01N 40°37' W 074°03'1018.6
2017-May-25 10:29N 40°35' W 073°50'816.6
2017-May-25 10:00N 40°34' W 074°00'9 0.9
2017-May-25 00:30N 40°43' W 074°03'0 0.7
2017-May-25 00:01N 40°43' W 074°02'2 3.3
2017-May-24 23:30N 40°42' W 074°00'816.0
2017-May-24 23:01N 40°34' W 074°01'712.9
2017-May-24 22:27N 40°35' W 073°51'920.1
2017-May-24 22:01N 40°38' W 074°03'5 9.3
2017-May-24 21:31N 40°42' W 074°00'612.7
2017-May-24 21:01N 40°36' W 074°02'918.7
2017-May-24 20:30N 40°35' W 073°50'917.9
2017-May-24 20:00N 40°36' W 074°02'713.4
2017-May-24 19:30N 40°42' W 074°00'510.6
2017-May-24 19:01N 40°37' W 074°03'1017.9
2017-May-24 18:27N 40°35' W 073°50'919.9
2017-May-24 18:00N 40°35' W 074°02'714.3
2017-May-24 17:30N 40°42' W 074°00'510.1
2017-May-24 17:01N 40°37' W 074°03'1019.6
2017-May-24 16:30N 40°35' W 073°50'815.4
2017-May-24 16:00N 40°34' W 074°00'816.5
2017-May-24 15:30N 40°42' W 074°00'510.8
2017-May-24 15:00N 40°37' W 074°03'1018.3
2017-May-24 14:28N 40°35' W 073°50'1111.1
2017-May-24 13:30N 40°42' W 074°00'510.1
2017-May-24 13:01N 40°37' W 074°03'1018.2
2017-May-24 12:28N 40°35' W 073°50'818.3
2017-May-24 12:00N 40°34' W 074°01'815.9
2017-May-24 11:30N 40°42' W 074°00'511.0
2017-May-24 11:01N 40°37' W 074°03'1018.6
2017-May-24 10:29N 40°35' W 073°50'714.6
2017-May-24 10:00N 40°34' W 073°59'918.5
2017-May-24 09:30N 40°43' W 074°03'0 0.5
2017-May-24 09:00N 40°43' W 074°03'0 0.0
2017-May-24 00:22N 40°43' W 074°03'0 0.9
2017-May-24 00:00N 40°43' W 074°02'2 3.4
2017-May-23 23:30N 40°42' W 074°00'713.8
2017-May-23 23:00N 40°35' W 074°02'917.8
2017-May-23 22:30N 40°35' W 073°50'1019.9
2017-May-23 22:00N 40°37' W 074°03'510.7
2017-May-23 21:30N 40°42' W 074°00'713.4
2017-May-23 21:00N 40°36' W 074°02'917.9
2017-May-23 20:30N 40°35' W 073°50'918.0
2017-May-23 20:00N 40°35' W 074°02'714.3
2017-May-23 19:31N 40°42' W 074°00'713.1
2017-May-23 19:01N 40°36' W 074°02'918.3
2017-May-23 18:30N 40°35' W 073°50'916.9
2017-May-23 18:00N 40°35' W 074°01'715.2
2017-May-23 17:30N 40°42' W 074°00'510.8
2017-May-23 17:01N 40°37' W 074°03'1018.6
2017-May-23 16:29N 40°35' W 073°50'816.9
2017-May-23 16:00N 40°34' W 074°00'816.1
2017-May-23 15:30N 40°42' W 074°00'510.5
2017-May-23 15:01N 40°37' W 074°03'4 4.0
2017-May-23 14:00N 40°34' W 073°60'816.5
2017-May-23 13:30N 40°42' W 074°00'510.8
2017-May-23 13:01N 40°37' W 074°03'1018.9
2017-May-23 12:29N 40°35' W 073°50'816.4
2017-May-23 12:01N 40°34' W 074°00'816.0
2017-May-23 11:30N 40°42' W 074°00'510.3
2017-May-23 11:01N 40°37' W 074°03'1019.5
2017-May-23 10:30N 40°35' W 073°50'714.1
2017-May-23 10:00N 40°34' W 073°59'918.3
2017-May-23 09:30N 40°43' W 074°03'0 0.0
2017-May-23 00:30N 40°43' W 074°03'0 0.7
2017-May-23 00:00N 40°43' W 074°02'2 3.3
2017-May-22 23:30N 40°42' W 074°00'510.8
2017-May-22 23:01N 40°37' W 074°03'1019.0
2017-May-22 22:29N 40°35' W 073°50'919.4
2017-May-22 22:00N 40°36' W 074°02'612.6
2017-May-22 21:30N 40°42' W 074°00'5 9.6
2017-May-22 21:01N 40°38' W 074°03'1018.8
2017-May-22 20:28N 40°35' W 073°50'918.8
2017-May-22 20:00N 40°35' W 074°02'714.7
2017-May-22 19:30N 40°42' W 074°00'5 9.4
2017-May-22 19:01N 40°38' W 074°03'1019.8
2017-May-22 18:30N 40°35' W 073°50'816.0
2017-May-22 18:00N 40°34' W 074°01'816.0
2017-May-22 17:30N 40°42' W 074°00'511.0
2017-May-22 17:01N 40°37' W 074°03'1019.2
2017-May-22 16:30N 40°35' W 073°50'816.7
2017-May-22 16:00N 40°34' W 074°01'816.1
2017-May-22 15:30N 40°42' W 074°00'510.2
2017-May-22 15:00N 40°37' W 074°03'3 3.1
2017-May-22 14:00N 40°34' W 074°01'815.6
2017-May-22 13:30N 40°42' W 074°00'510.6
2017-May-22 13:00N 40°37' W 074°03'1019.2
2017-May-22 12:29N 40°35' W 073°50'816.4
2017-May-22 12:00N 40°34' W 074°00'816.2
2017-May-22 11:30N 40°42' W 074°00'510.6
2017-May-22 11:01N 40°37' W 074°03'1019.3
2017-May-22 10:30N 40°35' W 073°50'816.6
2017-May-22 10:00N 40°34' W 074°01'917.6
2017-May-22 09:30N 40°43' W 074°03'0 0.1
2017-May-22 09:00N 40°43' W 074°03'0 0.0
2017-May-22 00:41N 40°43' W 074°03'0 0.4
2017-May-22 00:30N 40°43' W 074°02'1 1.3
2017-May-22 00:01N 40°42' W 074°02'4 8.4
2017-May-21 23:31N 40°38' W 074°03'1019.9
2017-May-21 23:00N 40°35' W 073°50'713.7
2017-May-21 22:30N 40°34' W 073°59'715.0
2017-May-21 22:01N 40°41' W 074°01'3 5.1
2017-May-21 21:31N 40°39' W 074°02'918.2
2017-May-21 21:00N 40°35' W 073°51'5 9.9
2017-May-21 20:31N 40°34' W 073°57'714.2
2017-May-21 20:01N 40°40' W 074°01'1 2.0
2017-May-21 19:31N 40°39' W 074°02'611.9
2017-May-21 19:00N 40°34' W 073°58'612.4
2017-May-21 18:31N 40°35' W 073°50'1019.7
2017-May-21 18:00N 40°37' W 074°03'510.7
2017-May-21 17:30N 40°42' W 074°00'816.0
2017-May-21 17:01N 40°34' W 074°01'816.0
2017-May-21 16:30N 40°35' W 073°50'919.3
2017-May-21 16:01N 40°36' W 074°02'612.5
2017-May-21 15:30N 40°42' W 074°00'611.6
2017-May-21 15:00N 40°37' W 074°03'3 2.7
2017-May-21 14:00N 40°34' W 074°01'816.1
2017-May-21 13:30N 40°42' W 074°00'511.0
2017-May-21 13:00N 40°37' W 074°03'1018.4
2017-May-21 12:28N 40°35' W 073°50'919.2
2017-May-21 12:00N 40°36' W 074°02'612.7
2017-May-21 11:31N 40°42' W 074°00'510.7
2017-May-21 11:00N 40°37' W 074°02'1019.1
2017-May-21 10:30N 40°35' W 073°50'714.7
2017-May-21 10:00N 40°34' W 073°59'918.3
2017-May-21 09:30N 40°43' W 074°03'0 0.0
2017-May-21 00:32N 40°43' W 074°03'0 3.3
2017-May-21 00:30N 40°43' W 074°02'0 0.0
2017-May-21 00:00N 40°43' W 074°02'2 3.3
2017-May-20 23:31N 40°42' W 074°00'815.0
2017-May-20 23:00N 40°35' W 074°01'917.3
2017-May-20 22:30N 40°35' W 073°50'1019.5
2017-May-20 22:00N 40°37' W 074°03'611.7
2017-May-20 21:30N 40°42' W 074°00'612.9
2017-May-20 21:00N 40°36' W 074°02'918.6
2017-May-20 20:31N 40°35' W 073°50'918.4
2017-May-20 20:00N 40°36' W 074°02'612.7
2017-May-20 19:30N 40°42' W 074°00'612.8
2017-May-20 19:00N 40°36' W 074°02'918.7
2017-May-20 18:30N 40°35' W 073°50'918.3
2017-May-20 18:00N 40°36' W 074°02'713.3
2017-May-20 17:30N 40°42' W 074°00'612.5
2017-May-20 17:00N 40°36' W 074°02'918.7
2017-May-20 16:30N 40°35' W 073°50'917.6
2017-May-20 16:00N 40°35' W 074°02'714.3
2017-May-20 15:30N 40°42' W 074°00'510.8
2017-May-20 15:01N 40°37' W 074°03'1019.1
2017-May-20 14:29N 40°35' W 073°50'1110.8
2017-May-20 13:30N 40°42' W 074°00'612.1
2017-May-20 13:01N 40°36' W 074°02'1018.6
2017-May-20 12:30N 40°35' W 073°50'817.2
2017-May-20 12:01N 40°34' W 074°01'815.9
2017-May-20 11:30N 40°42' W 074°00'4 8.8
2017-May-20 11:00N 40°38' W 074°03'5 9.1
2017-May-20 10:31N 40°43' W 074°03'0 0.6
2017-May-20 10:00N 40°43' W 074°03'0 0.0
2017-May-20 01:00N 40°43' W 074°03'0 0.7
2017-May-20 00:30N 40°43' W 074°02'  
Track history (hours):
 
Tides and Currents Weather Stations Pressure Air Temp Water Temp Dewpoint Dewpoint Depression Visibility Wind Speed Wind Dir Waves Ship Positions

Provincetown III

Owner: MYSTIC FERRY LEASING LLC, BOSTON, MA. More information available from US FCC via Universal Licensing System and Coast Guard Vessel Documentation Center.

Last reported at 2017-May-30 00:09 UTC. Time now 2017-May-30 07:28 UTC.
Position N 40°43' W 074°03'.

Length 30 m; draft 2 m.

Type: Passenger vessel. MMSI: 366954420.

Date/timePositionNaut miles runAvg speedWind from/ knotsBaromVisibWave heightAir tempDewpointWater temp
2017-May-30 00:09N 40°43' W 074°03'0 0.5
2017-May-30 00:00N 40°43' W 074°02'1 2.3
2017-May-29 23:31N 40°42' W 074°01'3 6.3
2017-May-29 23:01N 40°39' W 074°02'918.2
2017-May-29 22:30N 40°35' W 073°51'713.9
2017-May-29 22:00N 40°34' W 074°00'816.4
2017-May-29 21:31N 40°42' W 074°00'5 9.9
2017-May-29 21:01N 40°38' W 074°03'1019.0
2017-May-29 20:29N 40°35' W 073°50'817.4
2017-May-29 20:00N 40°34' W 074°01'815.9
2017-May-29 19:30N 40°42' W 074°00'4 8.7
2017-May-29 19:01N 40°38' W 074°02'1019.8
2017-May-29 18:30N 40°35' W 073°50'917.1
2017-May-29 18:00N 40°35' W 074°01'715.2
2017-May-29 17:31N 40°42' W 074°00'510.0
2017-May-29 17:01N 40°37' W 074°03'1019.6
2017-May-29 16:30N 40°35' W 073°50'917.9
2017-May-29 16:00N 40°35' W 074°02'714.1
2017-May-29 15:30N 40°42' W 074°00'611.3
2017-May-29 15:00N 40°37' W 074°03'1019.4
2017-May-29 14:30N 40°35' W 073°50'1110.7
2017-May-29 13:30N 40°42' W 074°00'510.7
2017-May-29 13:00N 40°37' W 074°03'1019.6
2017-May-29 12:31N 40°35' W 073°50'816.0
2017-May-29 12:00N 40°34' W 074°01'816.2
2017-May-29 11:31N 40°42' W 074°00'611.6
2017-May-29 11:00N 40°37' W 074°03'1019.0
2017-May-29 10:29N 40°35' W 073°50'612.6
2017-May-29 10:00N 40°34' W 073°58'918.9
2017-May-29 09:30N 40°43' W 074°02'0 0.7
2017-May-29 09:00N 40°43' W 074°03'0 0.0
2017-May-29 01:05N 40°43' W 074°03'0 0.1
2017-May-29 01:00N 40°43' W 074°03'0 0.7
2017-May-29 00:31N 40°43' W 074°02'2 3.3
2017-May-29 00:00N 40°42' W 074°00'714.5
2017-May-28 23:30N 40°35' W 074°01'917.3
2017-May-28 23:00N 40°35' W 073°50'714.9
2017-May-28 22:30N 40°34' W 073°60'816.6
2017-May-28 22:01N 40°42' W 074°00'611.2
2017-May-28 21:31N 40°37' W 074°03'1019.1
2017-May-28 21:00N 40°35' W 073°50'714.0
2017-May-28 20:29N 40°34' W 073°59'816.5
2017-May-28 20:01N 40°42' W 074°01'3 6.2
2017-May-28 19:30N 40°39' W 074°02'714.7
2017-May-28 19:00N 40°34' W 073°54'2 3.8
2017-May-28 18:30N 40°35' W 073°52'917.8
2017-May-28 18:01N 40°39' W 074°02'4 7.1
2017-May-28 17:30N 40°42' W 074°00'816.2
2017-May-28 17:01N 40°34' W 074°00'815.6
2017-May-28 16:30N 40°35' W 073°50'1019.1
2017-May-28 16:00N 40°36' W 074°02'612.2
2017-May-28 15:31N 40°42' W 074°00'611.9
2017-May-28 15:00N 40°36' W 074°02'2 1.5
2017-May-28 13:59N 40°35' W 074°01'715.0
2017-May-28 13:31N 40°42' W 074°00'611.6
2017-May-28 13:00N 40°37' W 074°02'1017.8
2017-May-28 12:28N 40°35' W 073°50'817.9
2017-May-28 12:00N 40°34' W 074°01'816.0
2017-May-28 11:30N 40°42' W 074°00'611.4
2017-May-28 11:00N 40°37' W 074°02'1017.5
2017-May-28 10:27N 40°35' W 073°50'716.1
2017-May-28 10:00N 40°34' W 073°59'918.6
2017-May-28 09:30N 40°43' W 074°03'0 0.2
2017-May-28 09:00N 40°43' W 074°03'0 0.0
2017-May-28 01:00N 40°43' W 074°03'0 0.7
2017-May-28 00:30N 40°43' W 074°03'2 3.3
2017-May-28 00:00N 40°42' W 074°00'612.4
2017-May-27 23:30N 40°36' W 074°02'918.0
2017-May-27 22:59N 40°35' W 073°50'917.6
2017-May-27 22:30N 40°35' W 074°01'815.4
2017-May-27 22:00N 40°42' W 074°00'714.7
2017-May-27 21:31N 40°35' W 074°01'917.6
2017-May-27 21:01N 40°35' W 073°50'917.4
2017-May-27 20:30N 40°35' W 074°02'714.5
2017-May-27 20:00N 40°42' W 074°00'4 8.3
2017-May-27 19:31N 40°38' W 074°02'1019.6
2017-May-27 19:00N 40°35' W 073°50'510.0
2017-May-27 18:30N 40°34' W 073°57'816.5
2017-May-27 18:01N 40°41' W 074°02'2 3.6
2017-May-27 17:31N 40°39' W 074°02'714.1
2017-May-27 17:00N 40°34' W 073°56'3 5.3
2017-May-27 16:26N 40°35' W 073°52'920.1
2017-May-27 16:00N 40°37' W 074°03'510.6
2017-May-27 15:31N 40°42' W 074°00'714.2
2017-May-27 15:01N 40°35' W 074°02'917.7
2017-May-27 14:30N 40°35' W 073°50'1110.7
2017-May-27 13:30N 40°42' W 074°00'510.9
2017-May-27 13:00N 40°37' W 074°03'1019.4
2017-May-27 12:30N 40°35' W 073°50'815.8
2017-May-27 12:00N 40°34' W 073°60'816.3
2017-May-27 11:30N 40°42' W 074°00'510.9
2017-May-27 11:00N 40°37' W 074°03'1019.8
2017-May-27 10:30N 40°35' W 073°50'611.2
2017-May-27 09:58N 40°34' W 073°58'10 1.1
2017-May-27 00:49N 40°43' W 074°03'0 1.1
2017-May-27 00:31N 40°43' W 074°03'0 0.2
2017-May-27 00:00N 40°43' W 074°03'2 4.7
2017-May-26 23:31N 40°40' W 074°01'713.5
2017-May-26 23:00N 40°34' W 073°59'4 6.6
2017-May-26 22:24N 40°34' W 073°54'820.3
2017-May-26 22:01N 40°38' W 074°03'4 8.5
2017-May-26 21:31N 40°42' W 074°00'816.0
2017-May-26 21:00N 40°34' W 074°01'815.7
2017-May-26 20:29N 40°35' W 073°50'1020.6
2017-May-26 20:01N 40°37' W 074°03'611.1
2017-May-26 19:30N 40°42' W 074°00'510.4
2017-May-26 19:01N 40°37' W 074°03'1019.8
2017-May-26 18:30N 40°35' W 073°50'917.2
2017-May-26 18:00N 40°35' W 074°01'714.8
2017-May-26 17:30N 40°42' W 074°00'611.1
2017-May-26 17:01N 40°37' W 074°03'1018.5
2017-May-26 16:29N 40°35' W 073°50'816.5
2017-May-26 16:01N 40°34' W 074°00'816.2
2017-May-26 15:30N 40°42' W 074°00'611.2
2017-May-26 15:00N 40°37' W 074°02'1018.9
2017-May-26 14:30N 40°35' W 073°50'1110.9
2017-May-26 13:30N 40°42' W 074°00'612.1
2017-May-26 13:01N 40°36' W 074°02'916.4
2017-May-26 12:26N 40°35' W 073°50'819.5
2017-May-26 12:00N 40°34' W 074°01'816.0
2017-May-26 11:30N 40°42' W 074°00'612.1
2017-May-26 11:01N 40°36' W 074°02'1018.5
2017-May-26 10:30N 40°35' W 073°50'714.8
2017-May-26 10:00N 40°34' W 073°60'918.5
2017-May-26 09:30N 40°43' W 074°03'0 0.2
2017-May-26 09:00N 40°43' W 074°03'0 0.0
2017-May-26 00:34N 40°43' W 074°03'0 0.0
2017-May-26 00:30N 40°43' W 074°03'0 0.7
2017-May-26 00:00N 40°43' W 074°02'2 3.3
2017-May-25 23:30N 40°42' W 074°00'714.0
2017-May-25 23:00N 40°35' W 074°02'917.6
2017-May-25 22:30N 40°35' W 073°50'1019.9
2017-May-25 22:00N 40°37' W 074°03'611.6
2017-May-25 21:30N 40°42' W 074°00'510.8
2017-May-25 21:01N 40°37' W 074°03'1019.2
2017-May-25 20:29N 40°35' W 073°50'918.1
2017-May-25 20:00N 40°35' W 074°02'714.5
2017-May-25 19:30N 40°42' W 074°00'612.5
2017-May-25 19:00N 40°36' W 074°02'918.7
2017-May-25 18:30N 40°35' W 073°50'917.2
2017-May-25 18:00N 40°34' W 074°01'815.7
2017-May-25 17:30N 40°42' W 074°00'510.7
2017-May-25 17:00N 40°37' W 074°03'1018.2
2017-May-25 16:28N 40°35' W 073°50'818.2
2017-May-25 16:00N 40°34' W 074°01'816.1
2017-May-25 15:31N 40°42' W 074°00'510.6
2017-May-25 15:00N 40°37' W 074°03'1019.1
2017-May-25 14:29N 40°35' W 073°50'1110.8
2017-May-25 13:31N 40°42' W 074°00'510.1
2017-May-25 13:00N 40°37' W 074°03'1018.9
2017-May-25 12:29N 40°35' W 073°50'817.7
2017-May-25 12:00N 40°34' W 074°01'815.9
2017-May-25 11:30N 40°42' W 074°00'611.2
2017-May-25 11:01N 40°37' W 074°03'1018.6
2017-May-25 10:29N 40°35' W 073°50'816.6
2017-May-25 10:00N 40°34' W 074°00'9 0.9
2017-May-25 00:30N 40°43' W 074°03'0 0.7
2017-May-25 00:01N 40°43' W 074°02'2 3.3
2017-May-24 23:30N 40°42' W 074°00'816.0
2017-May-24 23:01N 40°34' W 074°01'712.9
2017-May-24 22:27N 40°35' W 073°51'920.1
2017-May-24 22:01N 40°38' W 074°03'5 9.3
2017-May-24 21:31N 40°42' W 074°00'612.7
2017-May-24 21:01N 40°36' W 074°02'918.7
2017-May-24 20:30N 40°35' W 073°50'917.9
2017-May-24 20:00N 40°36' W 074°02'713.4
2017-May-24 19:30N 40°42' W 074°00'510.6
2017-May-24 19:01N 40°37' W 074°03'1017.9
2017-May-24 18:27N 40°35' W 073°50'919.9
2017-May-24 18:00N 40°35' W 074°02'714.3
2017-May-24 17:30N 40°42' W 074°00'510.1
2017-May-24 17:01N 40°37' W 074°03'1019.6
2017-May-24 16:30N 40°35' W 073°50'815.4
2017-May-24 16:00N 40°34' W 074°00'816.5
2017-May-24 15:30N 40°42' W 074°00'510.8
2017-May-24 15:00N 40°37' W 074°03'1018.3
2017-May-24 14:28N 40°35' W 073°50'1111.1
2017-May-24 13:30N 40°42' W 074°00'510.1
2017-May-24 13:01N 40°37' W 074°03'1018.2
2017-May-24 12:28N 40°35' W 073°50'818.3
2017-May-24 12:00N 40°34' W 074°01'815.9
2017-May-24 11:30N 40°42' W 074°00'511.0
2017-May-24 11:01N 40°37' W 074°03'1018.6
2017-May-24 10:29N 40°35' W 073°50'714.6
2017-May-24 10:00N 40°34' W 073°59'918.5
2017-May-24 09:30N 40°43' W 074°03'0 0.5
2017-May-24 09:00N 40°43' W 074°03'0 0.0
2017-May-24 00:22N 40°43' W 074°03'0 0.9
2017-May-24 00:00N 40°43' W 074°02'2 3.4
2017-May-23 23:30N 40°42' W 074°00'713.8
2017-May-23 23:00N 40°35' W 074°02'917.8
2017-May-23 22:30N 40°35' W 073°50'1019.9
2017-May-23 22:00N 40°37' W 074°03'510.7
2017-May-23 21:30N 40°42' W 074°00'713.4
2017-May-23 21:00N 40°36' W 074°02'917.9
2017-May-23 20:30N 40°35' W 073°50'918.0
2017-May-23 20:00N 40°35' W 074°02'714.3
2017-May-23 19:31N 40°42' W 074°00'713.1
2017-May-23 19:01N 40°36' W 074°02'918.3
2017-May-23 18:30N 40°35' W 073°50'916.9
2017-May-23 18:00N 40°35' W 074°01'715.2
2017-May-23 17:30N 40°42' W 074°00'510.8
2017-May-23 17:01N 40°37' W 074°03'1018.6
2017-May-23 16:29N 40°35' W 073°50'816.9
2017-May-23 16:00N 40°34' W 074°00'816.1
2017-May-23 15:30N 40°42' W 074°00'510.5
2017-May-23 15:01N 40°37' W 074°03'4 4.0
2017-May-23 14:00N 40°34' W 073°60'816.5
2017-May-23 13:30N 40°42' W 074°00'510.8
2017-May-23 13:01N 40°37' W 074°03'1018.9
2017-May-23 12:29N 40°35' W 073°50'816.4
2017-May-23 12:01N 40°34' W 074°00'816.0
2017-May-23 11:30N 40°42' W 074°00'510.3
2017-May-23 11:01N 40°37' W 074°03'1019.5
2017-May-23 10:30N 40°35' W 073°50'714.1
2017-May-23 10:00N 40°34' W 073°59'918.3
2017-May-23 09:30N 40°43' W 074°03'0 0.0
2017-May-23 00:30N 40°43' W 074°03'0 0.7
2017-May-23 00:00N 40°43' W 074°02'2 3.3
2017-May-22 23:30N 40°42' W 074°00'510.8
2017-May-22 23:01N 40°37' W 074°03'1019.0
2017-May-22 22:29N 40°35' W 073°50'919.4
2017-May-22 22:00N 40°36' W 074°02'612.6
2017-May-22 21:30N 40°42' W 074°00'5 9.6
2017-May-22 21:01N 40°38' W 074°03'1018.8
2017-May-22 20:28N 40°35' W 073°50'918.8
2017-May-22 20:00N 40°35' W 074°02'714.7
2017-May-22 19:30N 40°42' W 074°00'5 9.4
2017-May-22 19:01N 40°38' W 074°03'1019.8
2017-May-22 18:30N 40°35' W 073°50'816.0
2017-May-22 18:00N 40°34' W 074°01'816.0
2017-May-22 17:30N 40°42' W 074°00'511.0
2017-May-22 17:01N 40°37' W 074°03'1019.2
2017-May-22 16:30N 40°35' W 073°50'816.7
2017-May-22 16:00N 40°34' W 074°01'816.1
2017-May-22 15:30N 40°42' W 074°00'510.2
2017-May-22 15:00N 40°37' W 074°03'3 3.1
2017-May-22 14:00N 40°34' W 074°01'815.6
2017-May-22 13:30N 40°42' W 074°00'510.6
2017-May-22 13:00N 40°37' W 074°03'1019.2
2017-May-22 12:29N 40°35' W 073°50'816.4
2017-May-22 12:00N 40°34' W 074°00'816.2
2017-May-22 11:30N 40°42' W 074°00'510.6
2017-May-22 11:01N 40°37' W 074°03'1019.3
2017-May-22 10:30N 40°35' W 073°50'816.6
2017-May-22 10:00N 40°34' W 074°01'917.6
2017-May-22 09:30N 40°43' W 074°03'0 0.1
2017-May-22 09:00N 40°43' W 074°03'0 0.0
2017-May-22 00:41N 40°43' W 074°03'0 0.4
2017-May-22 00:30N 40°43' W 074°02'1 1.3
2017-May-22 00:01N 40°42' W 074°02'4 8.4
2017-May-21 23:31N 40°38' W 074°03'1019.9
2017-May-21 23:00N 40°35' W 073°50'713.7
2017-May-21 22:30N 40°34' W 073°59'715.0
2017-May-21 22:01N 40°41' W 074°01'3 5.1
2017-May-21 21:31N 40°39' W 074°02'918.2
2017-May-21 21:00N 40°35' W 073°51'5 9.9
2017-May-21 20:31N 40°34' W 073°57'714.2
2017-May-21 20:01N 40°40' W 074°01'1 2.0
2017-May-21 19:31N 40°39' W 074°02'611.9
2017-May-21 19:00N 40°34' W 073°58'612.4
2017-May-21 18:31N 40°35' W 073°50'1019.7
2017-May-21 18:00N 40°37' W 074°03'510.7
2017-May-21 17:30N 40°42' W 074°00'816.0
2017-May-21 17:01N 40°34' W 074°01'816.0
2017-May-21 16:30N 40°35' W 073°50'919.3
2017-May-21 16:01N 40°36' W 074°02'612.5
2017-May-21 15:30N 40°42' W 074°00'611.6
2017-May-21 15:00N 40°37' W 074°03'3 2.7
2017-May-21 14:00N 40°34' W 074°01'816.1
2017-May-21 13:30N 40°42' W 074°00'511.0
2017-May-21 13:00N 40°37' W 074°03'1018.4
2017-May-21 12:28N 40°35' W 073°50'919.2
2017-May-21 12:00N 40°36' W 074°02'612.7
2017-May-21 11:31N 40°42' W 074°00'510.7
2017-May-21 11:00N 40°37' W 074°02'1019.1
2017-May-21 10:30N 40°35' W 073°50'714.7
2017-May-21 10:00N 40°34' W 073°59'918.3
2017-May-21 09:30N 40°43' W 074°03'0 0.0
2017-May-21 00:32N 40°43' W 074°03'0 3.3
2017-May-21 00:30N 40°43' W 074°02'0 0.0
2017-May-21 00:00N 40°43' W 074°02'2 3.3
2017-May-20 23:31N 40°42' W 074°00'815.0
2017-May-20 23:00N 40°35' W 074°01'917.3
2017-May-20 22:30N 40°35' W 073°50'1019.5
2017-May-20 22:00N 40°37' W 074°03'611.7
2017-May-20 21:30N 40°42' W 074°00'612.9
2017-May-20 21:00N 40°36' W 074°02'918.6
2017-May-20 20:31N 40°35' W 073°50'918.4
2017-May-20 20:00N 40°36' W 074°02'612.7
2017-May-20 19:30N 40°42' W 074°00'612.8
2017-May-20 19:00N 40°36' W 074°02'918.7
2017-May-20 18:30N 40°35' W 073°50'918.3
2017-May-20 18:00N 40°36' W 074°02'713.3
2017-May-20 17:30N 40°42' W 074°00'612.5
2017-May-20 17:00N 40°36' W 074°02'918.7
2017-May-20 16:30N 40°35' W 073°50'917.6
2017-May-20 16:00N 40°35' W 074°02'714.3
2017-May-20 15:30N 40°42' W 074°00'510.8
2017-May-20 15:01N 40°37' W 074°03'1019.1
2017-May-20 14:29N 40°35' W 073°50'1110.8
2017-May-20 13:30N 40°42' W 074°00'612.1
2017-May-20 13:01N 40°36' W 074°02'1018.6
2017-May-20 12:30N 40°35' W 073°50'817.2
2017-May-20 12:01N 40°34' W 074°01'815.9
2017-May-20 11:30N 40°42' W 074°00'4 8.8
2017-May-20 11:00N 40°38' W 074°03'5 9.1
2017-May-20 10:31N 40°43' W 074°03'0 0.6
2017-May-20 10:00N 40°43' W 074°03'0 0.0
2017-May-20 01:00N 40°43' W 074°03'0 0.7
2017-May-20 00:30N 40°43' W 074°02'  

Dump ship's entire track history